createdAt,value
2018-06-25T00:00:22.299Z,7.37
2018-06-25T00:02:51.039Z,8.70
2018-06-25T00:05:19.552Z,7.90
2018-06-25T00:07:48.142Z,7.10
2018-06-25T00:10:16.737Z,7.83
2018-06-25T00:12:45.504Z,6.80
2018-06-25T00:15:14.028Z,7.80
2018-06-25T00:17:42.779Z,7.30
2018-06-25T00:20:11.286Z,7.07
2018-06-25T00:22:40.051Z,9.13
2018-06-25T00:25:08.616Z,7.97
2018-06-25T00:27:37.336Z,5.73
2018-06-25T00:30:05.966Z,5.70
2018-06-25T00:32:34.705Z,5.83
2018-06-25T00:35:03.224Z,6.77
2018-06-25T00:37:31.879Z,7.27
2018-06-25T00:40:00.394Z,6.60
2018-06-25T00:42:28.968Z,6.80
2018-06-25T00:44:57.567Z,5.90
2018-06-25T00:47:26.345Z,6.30
2018-06-25T00:49:54.883Z,6.77
2018-06-25T00:52:23.674Z,9.07
2018-06-25T00:54:52.160Z,7.63
2018-06-25T00:57:20.720Z,6.93
2018-06-25T00:59:53.282Z,8.00
2018-06-25T01:02:22.359Z,8.50
2018-06-25T01:04:50.987Z,7.17
2018-06-25T01:07:19.880Z,9.53
2018-06-25T01:09:48.647Z,8.47
2018-06-25T01:12:17.336Z,7.23
2018-06-25T01:14:46.117Z,9.80
2018-06-25T01:17:14.911Z,7.33
2018-06-25T01:19:43.418Z,7.03
2018-06-25T01:22:12.088Z,7.07
2018-06-25T01:24:40.575Z,8.03
2018-06-25T01:27:10.481Z,9.80
2018-06-25T01:29:41.359Z,7.13
2018-06-25T01:32:10.116Z,6.60
2018-06-25T01:34:38.916Z,10.37
2018-06-25T01:37:07.581Z,8.10
2018-06-25T01:39:36.120Z,8.97
2018-06-25T01:42:04.786Z,8.17
2018-06-25T01:44:33.373Z,7.93
2018-06-25T01:47:02.037Z,11.00
2018-06-25T01:49:30.602Z,8.10
2018-06-25T01:51:59.342Z,8.67
2018-06-25T01:54:27.874Z,7.60
2018-06-25T01:56:56.431Z,8.67
2018-06-25T01:59:24.974Z,8.13
2018-06-25T02:01:53.593Z,7.47
2018-06-25T02:04:22.211Z,7.20
2018-06-25T02:06:50.861Z,5.67
2018-06-25T02:09:19.398Z,5.67
2018-06-25T02:11:48.118Z,5.23
2018-06-25T02:14:16.634Z,5.90
2018-06-25T02:16:45.653Z,6.70
2018-06-25T02:19:14.160Z,5.77
2018-06-25T02:21:42.883Z,6.23
2018-06-25T02:24:11.442Z,5.23
2018-06-25T02:26:40.272Z,4.93
2018-06-25T02:29:08.799Z,5.87
2018-06-25T02:31:37.443Z,6.10
2018-06-25T02:34:06.325Z,7.20
2018-06-25T02:36:34.729Z,7.13
2018-06-25T02:39:03.452Z,9.63
2018-06-25T02:41:31.971Z,10.33
2018-06-25T02:44:00.536Z,13.70
2018-06-25T02:46:29.096Z,13.40
2018-06-25T02:48:57.671Z,12.20
2018-06-25T02:51:26.272Z,11.90
2018-06-25T02:53:54.758Z,12.03
2018-06-25T02:56:23.492Z,10.73
2018-06-25T02:58:51.987Z,10.97
2018-06-25T03:01:20.679Z,9.47
2018-06-25T03:03:49.298Z,13.03
2018-06-25T03:06:18.287Z,10.03
2018-06-25T03:08:46.915Z,10.03
2018-06-25T03:11:15.568Z,8.90
2018-06-25T03:13:44.111Z,9.97
2018-06-25T03:16:12.845Z,10.63
2018-06-25T03:18:41.372Z,8.87
2018-06-25T03:21:10.036Z,10.80
2018-06-25T03:23:38.551Z,10.27
2018-06-25T03:26:07.289Z,8.23
2018-06-25T03:28:35.850Z,8.63
2018-06-25T03:31:04.424Z,9.50
2018-06-25T03:33:32.952Z,9.40
2018-06-25T03:36:01.630Z,9.67
2018-06-25T03:38:30.181Z,11.87
2018-06-25T03:40:58.672Z,9.53
2018-06-25T03:43:27.224Z,11.40
2018-06-25T03:45:55.884Z,11.60
2018-06-25T03:48:24.395Z,14.23
2018-06-25T03:50:52.923Z,14.50
2018-06-25T03:53:21.461Z,13.83
2018-06-25T03:55:50.012Z,14.67
2018-06-25T03:58:18.508Z,11.30
2018-06-25T04:00:46.734Z,8.70
2018-06-25T04:03:15.268Z,9.50
2018-06-25T04:05:43.765Z,9.00
2018-06-25T04:08:12.278Z,10.97
2018-06-25T04:10:40.943Z,10.07
2018-06-25T04:13:09.444Z,7.77
2018-06-25T04:15:38.218Z,6.97
2018-06-25T04:18:07.171Z,5.77
2018-06-25T04:20:35.765Z,5.23
2018-06-25T04:23:04.239Z,5.60
2018-06-25T04:25:32.757Z,5.67
2018-06-25T04:28:01.289Z,10.00
2018-06-25T04:30:30.052Z,8.93
2018-06-25T04:32:58.572Z,9.13
2018-06-25T04:35:27.352Z,10.97
2018-06-25T04:37:55.903Z,13.53
2018-06-25T04:40:24.433Z,14.17
2018-06-25T04:42:53.050Z,14.00
2018-06-25T04:45:21.643Z,13.00
2018-06-25T04:47:50.178Z,16.60
2018-06-25T04:50:18.733Z,11.03
2018-06-25T04:52:47.241Z,11.20
2018-06-25T04:55:15.944Z,10.23
2018-06-25T04:57:44.438Z,8.83
2018-06-25T05:00:13.204Z,12.43
2018-06-25T05:02:41.726Z,9.00
2018-06-25T05:05:10.235Z,9.63
2018-06-25T05:07:38.765Z,5.40
2018-06-25T05:10:07.557Z,5.90
2018-06-25T05:12:36.075Z,4.67
2018-06-25T05:15:04.836Z,7.77
2018-06-25T05:17:33.438Z,7.43
2018-06-25T05:20:02.083Z,8.20
2018-06-25T05:22:30.622Z,12.77
2018-06-25T05:24:59.381Z,12.87
2018-06-25T05:27:27.916Z,15.10
2018-06-25T05:29:56.663Z,16.07
2018-06-25T05:32:25.206Z,15.10
2018-06-25T05:34:54.047Z,13.63
2018-06-25T05:37:22.547Z,20.30
2018-06-25T05:39:51.118Z,14.47
2018-06-25T05:42:22.349Z,14.17
2018-06-25T05:44:52.494Z,13.23
2018-06-25T05:47:21.471Z,15.47
2018-06-25T05:49:50.325Z,13.63
2018-06-25T05:52:18.826Z,13.47
2018-06-25T05:54:47.348Z,12.40
2018-06-25T05:57:15.861Z,12.07
2018-06-25T05:59:44.414Z,12.17
2018-06-25T06:02:13.022Z,9.70
2018-06-25T06:04:41.816Z,11.97
2018-06-25T06:07:10.612Z,9.63
2018-06-25T06:09:39.308Z,9.33
2018-06-25T06:12:07.853Z,6.27
2018-06-25T06:14:36.660Z,8.20
2018-06-25T06:17:05.347Z,7.97
2018-06-25T06:19:33.750Z,7.20
2018-06-25T06:22:02.637Z,9.70
2018-06-25T06:24:31.809Z,10.27
2018-06-25T06:27:00.303Z,8.70
2018-06-25T06:29:29.099Z,7.90
2018-06-25T06:31:57.740Z,12.53
2018-06-25T06:34:26.515Z,7.90
2018-06-25T06:36:55.065Z,9.57
2018-06-25T06:39:23.686Z,8.30
2018-06-25T06:41:52.257Z,8.53
2018-06-25T06:44:20.830Z,7.70
2018-06-25T06:46:49.335Z,8.20
2018-06-25T06:49:17.880Z,7.87
2018-06-25T06:51:46.383Z,12.73
2018-06-25T06:54:15.195Z,10.20
2018-06-25T06:56:43.787Z,8.50
2018-06-25T06:59:12.369Z,8.20
2018-06-25T07:01:40.892Z,7.13
2018-06-25T07:04:09.572Z,6.77
2018-06-25T07:06:38.083Z,7.47
2018-06-25T07:09:09.635Z,7.13
2018-06-25T07:11:38.168Z,9.77
2018-06-25T07:14:07.830Z,9.57
2018-06-25T07:16:36.567Z,10.07
2018-06-25T07:19:05.459Z,11.43
2018-06-25T07:21:40.757Z,12.70
2018-06-25T07:24:09.567Z,10.80
2018-06-25T07:26:38.046Z,11.20
2018-06-25T07:29:06.760Z,10.87
2018-06-25T07:31:35.335Z,10.57
2018-06-25T07:34:04.105Z,10.13
2018-06-25T07:36:32.639Z,9.97
2018-06-25T07:39:01.281Z,9.70
2018-06-25T07:41:29.813Z,8.83
2018-06-25T07:43:58.394Z,9.43
2018-06-25T07:46:26.915Z,8.53
2018-06-25T07:48:55.690Z,9.37
2018-06-25T07:51:24.240Z,10.40
2018-06-25T07:53:52.951Z,10.37
2018-06-25T07:56:21.502Z,10.00
2018-06-25T07:58:50.238Z,10.90
2018-06-25T08:01:18.783Z,10.97
2018-06-25T08:03:47.509Z,7.37
2018-06-25T08:06:16.017Z,7.57
2018-06-25T08:08:44.621Z,6.97
2018-06-25T08:11:13.526Z,7.43
2018-06-25T08:13:42.159Z,7.37
2018-06-25T08:16:10.733Z,6.67
2018-06-25T08:18:39.621Z,5.40
2018-06-25T08:21:08.158Z,5.90
2018-06-25T08:23:36.926Z,5.77
2018-06-25T08:26:05.462Z,7.17
2018-06-25T08:28:34.155Z,7.50
2018-06-25T08:31:02.709Z,6.43
2018-06-25T08:33:31.283Z,5.87
2018-06-25T08:35:59.827Z,7.63
2018-06-25T08:38:28.557Z,6.37
2018-06-25T08:40:57.143Z,7.67
2018-06-25T08:43:25.990Z,8.27
2018-06-25T08:45:54.631Z,8.93
2018-06-25T08:48:23.412Z,10.83
2018-06-25T08:50:51.974Z,7.63
2018-06-25T08:53:20.898Z,6.03
2018-06-25T08:55:49.455Z,7.33
2018-06-25T08:58:18.013Z,7.73
2018-06-25T09:00:46.585Z,5.80
2018-06-25T09:03:15.383Z,6.37
2018-06-25T09:05:44.088Z,6.63
2018-06-25T09:08:12.941Z,8.40
2018-06-25T09:10:41.535Z,7.33
2018-06-25T09:13:10.265Z,5.87
2018-06-25T09:15:39.055Z,6.03
2018-06-25T09:18:07.718Z,6.07
2018-06-25T09:20:36.278Z,7.00
2018-06-25T09:23:05.213Z,7.57
2018-06-25T09:25:33.887Z,7.90
2018-06-25T09:28:04.868Z,6.53
2018-06-25T09:30:33.412Z,8.43
2018-06-25T09:33:02.555Z,7.23
2018-06-25T09:35:31.219Z,5.80
2018-06-25T09:38:00.219Z,5.80
2018-06-25T09:40:28.946Z,6.43
2018-06-25T09:42:57.696Z,5.90
2018-06-25T09:45:26.225Z,5.63
2018-06-25T09:47:54.952Z,5.53
2018-06-25T09:50:23.479Z,6.90
2018-06-25T09:52:52.101Z,5.20
2018-06-25T09:55:20.797Z,6.43
2018-06-25T09:57:49.625Z,5.80
2018-06-25T10:00:23.606Z,6.80
2018-06-25T10:02:52.503Z,8.00
2018-06-25T10:05:21.187Z,4.77
2018-06-25T10:07:50.098Z,4.83
2018-06-25T10:10:18.908Z,7.47
2018-06-25T10:12:47.667Z,5.67
2018-06-25T10:15:16.208Z,6.43
2018-06-25T10:17:44.831Z,5.13
2018-06-25T10:20:13.481Z,5.73
2018-06-25T10:22:42.258Z,8.60
2018-06-25T10:25:10.952Z,5.10
2018-06-25T10:27:39.812Z,6.77
2018-06-25T10:30:08.361Z,6.07
2018-06-25T10:32:36.944Z,5.00
2018-06-25T10:35:05.676Z,7.57
2018-06-25T10:37:34.562Z,6.70
2018-06-25T10:40:03.191Z,7.30
2018-06-25T10:42:32.107Z,5.43
2018-06-25T10:45:00.775Z,5.00
2018-06-25T10:47:29.529Z,5.40
2018-06-25T10:49:58.074Z,6.37
2018-06-25T10:52:26.652Z,5.30
2018-06-25T10:54:55.347Z,5.27
2018-06-25T10:57:24.255Z,8.00
2018-06-25T10:59:53.060Z,5.23
2018-06-25T11:02:21.774Z,6.80
2018-06-25T11:04:50.270Z,5.03
2018-06-25T11:07:19.010Z,6.77
2018-06-25T11:09:47.448Z,7.53
2018-06-25T11:12:16.222Z,5.30
2018-06-25T11:14:44.789Z,4.87
2018-06-25T11:17:13.503Z,3.97
2018-06-25T11:19:42.143Z,5.73
2018-06-25T11:22:10.876Z,4.57
2018-06-25T11:24:39.411Z,3.63
2018-06-25T11:27:08.307Z,4.97
2018-06-25T11:29:36.671Z,5.07
2018-06-25T11:32:05.429Z,6.17
2018-06-25T11:34:33.974Z,6.33
2018-06-25T11:37:02.347Z,6.20
2018-06-25T11:39:30.909Z,5.77
2018-06-25T11:41:59.692Z,5.30
2018-06-25T11:44:28.285Z,5.67
2018-06-25T11:46:56.954Z,5.00
2018-06-25T11:49:25.493Z,5.67
2018-06-25T11:51:54.181Z,5.03
2018-06-25T11:54:22.712Z,5.93
2018-06-25T11:56:51.296Z,4.60
2018-06-25T11:59:19.997Z,5.13
2018-06-25T12:01:48.765Z,7.47
2018-06-25T12:04:17.466Z,4.70
2018-06-25T12:06:46.042Z,5.10
2018-06-25T12:09:14.714Z,5.33
2018-06-25T12:11:43.545Z,5.17
2018-06-25T12:14:12.293Z,4.10
2018-06-25T12:16:41.037Z,4.73
2018-06-25T12:19:09.751Z,5.73
2018-06-25T12:21:38.425Z,5.13
2018-06-25T12:24:07.214Z,3.80
2018-06-25T12:26:36.168Z,3.80
2018-06-25T12:29:04.733Z,5.30
2018-06-25T12:31:33.507Z,4.47
2018-06-25T12:34:02.951Z,6.47
2018-06-25T12:36:31.829Z,5.57
2018-06-25T12:39:00.527Z,6.87
2018-06-25T12:41:29.304Z,5.47
2018-06-25T12:43:57.873Z,4.77
2018-06-25T12:46:26.625Z,6.70
2018-06-25T12:48:55.228Z,6.00
2018-06-25T12:51:23.904Z,4.53
2018-06-25T12:53:52.579Z,6.63
2018-06-25T12:56:21.128Z,5.23
2018-06-25T12:58:49.792Z,5.03
2018-06-25T13:01:18.595Z,5.03
2018-06-25T13:03:47.307Z,6.87
2018-06-25T13:06:16.189Z,6.30
2018-06-25T13:08:44.820Z,5.60
2018-06-25T13:11:13.637Z,4.67
2018-06-25T13:13:42.304Z,6.20
2018-06-25T13:16:11.227Z,4.60
2018-06-25T13:18:39.895Z,5.57
2018-06-25T13:21:08.696Z,5.33
2018-06-25T13:23:37.318Z,5.87
2018-06-25T13:26:05.914Z,4.13
2018-06-25T13:28:34.664Z,5.87
2018-06-25T13:31:03.548Z,5.83
2018-06-25T13:33:32.353Z,4.33
2018-06-25T13:36:01.293Z,6.60
2018-06-25T13:38:30.044Z,5.03
2018-06-25T13:40:58.712Z,4.53
2018-06-25T13:43:27.526Z,5.40
2018-06-25T13:45:56.361Z,4.17
2018-06-25T13:48:25.150Z,4.90
2018-06-25T13:50:54.030Z,5.07
2018-06-25T13:53:22.592Z,4.10
2018-06-25T13:55:51.457Z,6.07
2018-06-25T13:58:20.163Z,4.17
2018-06-25T14:00:49.020Z,3.77
2018-06-25T14:03:17.571Z,6.80
2018-06-25T14:05:46.165Z,3.20
2018-06-25T14:08:14.873Z,3.60
2018-06-25T14:10:43.681Z,3.07
2018-06-25T14:13:12.268Z,5.67
2018-06-25T14:15:40.979Z,3.37
2018-06-25T14:18:09.937Z,3.37
2018-06-25T14:20:38.704Z,3.93
2018-06-25T14:23:07.387Z,3.77
2018-06-25T14:25:41.642Z,3.17
2018-06-25T14:28:15.519Z,2.83
2018-06-25T14:30:49.526Z,2.80
2018-06-25T14:33:22.416Z,4.37
2018-06-25T14:35:51.368Z,3.37
2018-06-25T14:38:20.262Z,3.53
2018-06-25T14:40:49.199Z,3.50
2018-06-25T14:43:18.006Z,4.23
2018-06-25T14:45:47.086Z,4.27
2018-06-25T14:48:15.997Z,4.03
2018-06-25T14:50:44.872Z,5.27
2018-06-25T14:53:13.609Z,3.80
2018-06-25T14:55:42.434Z,4.03
2018-06-25T14:58:11.004Z,5.43
2018-06-25T15:00:39.735Z,7.13
2018-06-25T15:03:08.284Z,8.33
2018-06-25T15:05:37.195Z,4.90
2018-06-25T15:08:05.842Z,4.87
2018-06-25T15:10:34.711Z,5.20
2018-06-25T15:13:03.506Z,5.30
2018-06-25T15:15:32.053Z,4.47
2018-06-25T15:18:00.663Z,5.47
2018-06-25T15:20:29.600Z,5.10
2018-06-25T15:22:58.295Z,5.87
2018-06-25T15:25:27.159Z,4.83
2018-06-25T15:27:55.726Z,6.70
2018-06-25T15:30:24.518Z,4.63
2018-06-25T15:32:53.251Z,5.33
2018-06-25T15:35:21.965Z,6.30
2018-06-25T15:37:50.530Z,5.60
2018-06-25T15:40:19.197Z,4.67
2018-06-25T15:42:47.867Z,6.33
2018-06-25T15:45:16.683Z,5.90
2018-06-25T15:47:45.469Z,5.40
2018-06-25T15:50:14.514Z,6.00
2018-06-25T15:52:43.093Z,6.33
2018-06-25T15:55:11.932Z,5.83
2018-06-25T15:57:40.506Z,5.30
2018-06-25T16:00:09.369Z,6.60
2018-06-25T16:02:37.951Z,7.07
2018-06-25T16:05:06.564Z,7.57
2018-06-25T16:07:35.125Z,5.60
2018-06-25T16:10:03.963Z,5.53
2018-06-25T16:12:32.633Z,6.00
2018-06-25T16:15:01.445Z,6.90
2018-06-25T16:17:30.043Z,6.17
2018-06-25T16:19:58.584Z,4.83
2018-06-25T16:22:27.124Z,5.23
2018-06-25T16:24:55.887Z,5.77
2018-06-25T16:27:24.546Z,7.17
2018-06-25T16:29:53.290Z,6.13
2018-06-25T16:32:21.886Z,5.13
2018-06-25T16:34:50.470Z,6.03
2018-06-25T16:37:19.056Z,7.73
2018-06-25T16:39:47.847Z,4.70
2018-06-25T16:42:16.458Z,4.43
2018-06-25T16:44:45.416Z,4.97
2018-06-25T16:47:14.022Z,4.63
2018-06-25T16:49:42.800Z,5.10
2018-06-25T16:52:11.336Z,4.63
2018-06-25T16:54:40.179Z,4.30
2018-06-25T16:57:08.804Z,4.30
2018-06-25T16:59:37.601Z,4.00
2018-06-25T17:02:06.326Z,5.23
2018-06-25T17:04:35.247Z,4.60
2018-06-25T17:07:03.859Z,3.90
2018-06-25T17:09:32.664Z,6.00
2018-06-25T17:12:01.236Z,4.93
2018-06-25T17:14:30.106Z,4.50
2018-06-25T17:16:58.716Z,4.23
2018-06-25T17:19:27.602Z,4.37
2018-06-25T17:21:56.297Z,4.37
2018-06-25T17:24:24.988Z,4.30
2018-06-25T17:26:53.532Z,4.33
2018-06-25T17:29:22.243Z,3.90
2018-06-25T17:31:50.896Z,4.17
2018-06-25T17:34:19.745Z,4.17
2018-06-25T17:36:48.314Z,3.93
2018-06-25T17:39:17.018Z,4.07
2018-06-25T17:41:45.601Z,4.17
2018-06-25T17:44:14.185Z,4.50
2018-06-25T17:46:42.755Z,4.47
2018-06-25T17:49:11.497Z,5.63
2018-06-25T17:51:40.043Z,4.00
2018-06-25T17:54:08.669Z,4.80
2018-06-25T17:56:37.384Z,4.63
2018-06-25T17:59:06.189Z,5.63
2018-06-25T18:01:34.899Z,5.00
2018-06-25T18:04:03.554Z,4.40
2018-06-25T18:06:32.156Z,5.87
2018-06-25T18:09:00.958Z,6.60
2018-06-25T18:11:29.647Z,4.50
2018-06-25T18:13:58.468Z,4.63
2018-06-25T18:16:27.097Z,7.90
2018-06-25T18:18:55.944Z,5.43
2018-06-25T18:21:24.693Z,5.83
2018-06-25T18:23:53.545Z,4.50
2018-06-25T18:26:22.400Z,7.17
2018-06-25T18:28:51.083Z,4.43
2018-06-25T18:31:19.952Z,4.40
2018-06-25T18:33:48.755Z,4.53
2018-06-25T18:36:17.290Z,5.57
2018-06-25T18:38:45.980Z,5.03
2018-06-25T18:41:14.548Z,5.00
2018-06-25T18:43:43.348Z,5.63
2018-06-25T18:46:12.114Z,7.57
2018-06-25T18:48:40.802Z,7.13
2018-06-25T18:51:09.393Z,6.13
2018-06-25T18:53:38.103Z,7.53
2018-06-25T18:56:06.635Z,5.57
2018-06-25T18:58:35.232Z,5.30
2018-06-25T19:01:03.999Z,6.23
2018-06-25T19:03:32.731Z,5.93
2018-06-25T19:06:01.283Z,6.23
2018-06-25T19:08:30.036Z,7.40
2018-06-25T19:10:58.714Z,5.87
2018-06-25T19:13:27.513Z,5.47
2018-06-25T19:15:56.281Z,6.43
2018-06-25T19:18:25.121Z,5.97
2018-06-25T19:20:53.674Z,7.37
2018-06-25T19:23:22.513Z,5.80
2018-06-25T19:25:51.152Z,6.27
2018-06-25T19:28:20.086Z,6.03
2018-06-25T19:30:48.661Z,5.97
2018-06-25T19:33:17.495Z,7.03
2018-06-25T19:35:46.050Z,8.37
2018-06-25T19:38:14.920Z,6.73
2018-06-25T19:40:43.770Z,8.37
2018-06-25T19:43:12.710Z,7.07
2018-06-25T19:45:41.321Z,9.20
2018-06-25T19:48:10.114Z,7.03
2018-06-25T19:50:38.680Z,12.87
2018-06-25T19:53:07.573Z,15.00
2018-06-25T19:55:36.404Z,11.97
2018-06-25T19:58:05.204Z,9.33
2018-06-25T20:00:33.943Z,6.27
2018-06-25T20:03:02.776Z,7.97
2018-06-25T20:05:31.591Z,7.70
2018-06-25T20:08:00.247Z,12.93
2018-06-25T20:10:28.769Z,12.33
2018-06-25T20:12:57.706Z,8.00
2018-06-25T20:15:26.305Z,9.83
2018-06-25T20:17:54.880Z,11.07
2018-06-25T20:20:23.465Z,11.10
2018-06-25T20:22:52.234Z,9.80
2018-06-25T20:25:20.811Z,10.53
2018-06-25T20:27:49.692Z,10.50
2018-06-25T20:30:18.259Z,12.80
2018-06-25T20:32:46.983Z,10.40
2018-06-25T20:35:15.540Z,9.27
2018-06-25T20:37:44.278Z,9.10
2018-06-25T20:40:12.916Z,11.40
2018-06-25T20:42:41.795Z,11.10
2018-06-25T20:45:10.500Z,11.37
2018-06-25T20:47:39.248Z,11.70
2018-06-25T20:50:07.583Z,10.37
2018-06-25T20:52:36.215Z,13.57
2018-06-25T20:55:04.624Z,12.10
2018-06-25T20:57:33.565Z,9.63
2018-06-25T21:00:02.595Z,12.43
2018-06-25T21:02:31.421Z,12.07
2018-06-25T21:05:00.388Z,6.97
2018-06-25T21:07:29.782Z,7.47
2018-06-25T21:09:58.790Z,8.37
2018-06-25T21:12:27.476Z,6.67
2018-06-25T21:14:56.524Z,10.23
2018-06-25T21:17:25.263Z,7.20
2018-06-25T21:19:54.168Z,4.63
2018-06-25T21:22:22.736Z,6.07
2018-06-25T21:24:51.342Z,4.43
2018-06-25T21:27:19.556Z,5.57
2018-06-25T21:29:48.434Z,5.77
2018-06-25T21:32:17.069Z,5.40
2018-06-25T21:34:45.648Z,7.33
2018-06-25T21:37:14.237Z,5.23
2018-06-25T21:39:42.964Z,5.47
2018-06-25T21:42:11.775Z,4.73
2018-06-25T21:44:40.513Z,10.97
2018-06-25T21:47:09.217Z,2.93
2018-06-25T21:49:37.823Z,3.70
2018-06-25T21:52:06.436Z,3.67
2018-06-25T21:54:35.342Z,3.33
2018-06-25T21:57:04.071Z,2.70
2018-06-25T21:59:32.791Z,5.10
2018-06-25T22:02:01.384Z,7.10
2018-06-25T22:04:30.180Z,5.70
2018-06-25T22:06:58.750Z,8.30
2018-06-25T22:09:27.638Z,5.10
2018-06-25T22:11:56.270Z,6.27
2018-06-25T22:14:25.048Z,8.83
2018-06-25T22:16:53.611Z,8.57
2018-06-25T22:19:22.411Z,8.13
2018-06-25T22:21:50.986Z,8.20
2018-06-25T22:24:19.697Z,8.87
2018-06-25T22:26:48.257Z,9.30
2018-06-25T22:29:17.336Z,8.47
2018-06-25T22:31:45.917Z,9.27
2018-06-25T22:34:14.449Z,8.10
2018-06-25T22:36:42.964Z,9.17
2018-06-25T22:39:12.566Z,8.83
2018-06-25T22:41:41.950Z,5.87
2018-06-25T22:44:12.329Z,4.90
2018-06-25T22:46:41.912Z,5.77
2018-06-25T22:49:10.700Z,5.77
2018-06-25T22:51:39.195Z,6.00
2018-06-25T22:54:08.393Z,5.63
2018-06-25T22:56:36.925Z,8.57
2018-06-25T22:59:06.206Z,8.83
2018-06-25T23:01:34.757Z,7.17
2018-06-25T23:04:03.541Z,8.23
2018-06-25T23:06:32.060Z,7.90
2018-06-25T23:09:00.845Z,8.40
2018-06-25T23:11:29.363Z,8.37
2018-06-25T23:13:57.934Z,7.77
2018-06-25T23:16:26.491Z,8.87
2018-06-25T23:18:55.295Z,7.67
2018-06-25T23:21:23.814Z,8.33
2018-06-25T23:23:52.464Z,8.33
2018-06-25T23:26:20.968Z,8.13
2018-06-25T23:28:49.590Z,8.50
2018-06-25T23:31:18.138Z,9.43
2018-06-25T23:33:46.771Z,8.67
2018-06-25T23:36:15.360Z,8.30
2018-06-25T23:38:44.018Z,8.30
2018-06-25T23:41:12.533Z,10.70
2018-06-25T23:43:41.062Z,10.10
2018-06-25T23:46:09.609Z,9.63
2018-06-25T23:48:38.305Z,7.53
2018-06-25T23:51:06.853Z,8.83
2018-06-25T23:53:35.597Z,8.53
2018-06-25T23:56:04.094Z,6.93
2018-06-25T23:58:32.667Z,8.13
